createdAt,value
2022-10-19T00:00:07.888Z,1.58
2022-10-19T00:02:38.123Z,2.08
2022-10-19T00:05:05.989Z,0.55
2022-10-19T00:07:36.170Z,2.45
2022-10-19T00:10:05.009Z,1.35
2022-10-19T00:12:32.507Z,0.70
2022-10-19T00:14:59.935Z,1.63
2022-10-19T00:17:27.391Z,0.70
2022-10-19T00:20:00.360Z,0.98
2022-10-19T00:22:27.844Z,0.80
2022-10-19T00:24:58.138Z,2.15
2022-10-19T00:27:25.684Z,0.90
2022-10-19T00:29:58.782Z,0.85
2022-10-19T00:32:26.561Z,0.55
2022-10-19T00:34:53.989Z,0.40
2022-10-19T00:37:24.349Z,0.63
2022-10-19T00:42:23.947Z,0.95
2022-10-19T00:44:51.329Z,0.70
2022-10-19T00:47:21.208Z,0.40
2022-10-19T00:49:49.585Z,0.47
2022-10-19T00:52:19.942Z,0.98
2022-10-19T00:54:48.798Z,2.50
2022-10-19T00:57:16.515Z,0.80
2022-10-19T00:59:45.957Z,1.75
2022-10-19T01:02:13.321Z,0.80
2022-10-19T01:04:45.304Z,1.08
2022-10-19T01:09:43.405Z,0.80
2022-10-19T01:12:33.045Z,0.68
2022-10-19T01:15:36.907Z,0.57
2022-10-19T01:18:15.592Z,0.95
2022-10-19T01:21:12.830Z,2.75
2022-10-19T01:24:03.362Z,0.63
2022-10-19T01:27:04.993Z,4.30
2022-10-19T01:30:02.149Z,0.65
2022-10-19T01:32:40.443Z,2.25
2022-10-19T01:35:32.086Z,1.05
2022-10-19T01:38:07.421Z,0.70
2022-10-19T01:40:45.132Z,0.47
2022-10-19T01:43:37.046Z,0.60
2022-10-19T01:46:23.996Z,3.10
2022-10-19T01:49:19.158Z,0.52
2022-10-19T01:51:53.555Z,3.58
2022-10-19T01:54:23.099Z,0.90
2022-10-19T01:56:51.798Z,1.20
2022-10-19T01:59:21.357Z,1.10
2022-10-19T02:01:52.621Z,1.17
2022-10-19T02:04:23.164Z,0.85
2022-10-19T02:06:54.545Z,0.95
2022-10-19T02:09:22.462Z,1.17
2022-10-19T02:11:56.915Z,1.20
2022-10-19T02:14:32.762Z,0.88
2022-10-19T02:17:05.400Z,1.23
2022-10-19T02:19:32.928Z,1.20
2022-10-19T02:22:03.257Z,3.90
2022-10-19T02:24:57.393Z,2.17
2022-10-19T02:27:36.620Z,0.60
2022-10-19T02:30:11.805Z,3.13
2022-10-19T02:36:06.782Z,0.60
2022-10-19T02:39:02.695Z,5.68
2022-10-19T02:42:07.452Z,1.15
2022-10-19T02:45:14.734Z,0.82
2022-10-19T02:48:04.111Z,1.38
2022-10-19T02:51:06.626Z,1.27
2022-10-19T02:53:54.608Z,0.73
2022-10-19T02:58:32.349Z,1.30
2022-10-19T02:59:50.451Z,1.30
2022-10-19T03:06:06.595Z,0.95
2022-10-19T03:09:43.956Z,1.08
2022-10-19T03:12:20.342Z,1.88
2022-10-19T03:15:02.042Z,1.30
2022-10-19T03:17:38.182Z,1.23
2022-10-19T03:21:50.322Z,1.77
2022-10-19T03:23:11.707Z,0.65
2022-10-19T03:25:41.518Z,1.35
2022-10-19T03:28:11.775Z,2.35
2022-10-19T03:30:44.585Z,2.33
2022-10-19T03:33:12.039Z,1.60
2022-10-19T03:35:42.080Z,1.70
2022-10-19T03:38:09.648Z,2.00
2022-10-19T03:41:09.251Z,1.77
2022-10-19T03:43:36.823Z,2.08
2022-10-19T03:46:19.253Z,1.40
2022-10-19T03:49:23.481Z,5.00
2022-10-19T03:51:52.417Z,2.53
2022-10-19T03:54:27.339Z,3.83
2022-10-19T03:56:55.046Z,4.50
2022-10-19T03:59:24.671Z,4.45
2022-10-19T04:01:52.088Z,3.92
2022-10-19T04:04:23.367Z,3.00
2022-10-19T04:06:53.486Z,3.22
2022-10-19T04:09:22.776Z,3.55
2022-10-19T04:11:55.458Z,7.07
2022-10-19T04:14:56.186Z,4.38
2022-10-19T04:17:26.807Z,4.38
2022-10-19T04:20:05.556Z,4.57
2022-10-19T04:22:35.437Z,4.68
2022-10-19T04:25:02.835Z,5.30
2022-10-19T04:27:30.357Z,7.35
2022-10-19T04:30:02.928Z,5.28
2022-10-19T04:32:32.450Z,8.60
2022-10-19T04:34:59.912Z,5.80
2022-10-19T04:37:31.004Z,7.97
2022-10-19T04:40:01.626Z,11.13
2022-10-19T04:42:32.128Z,8.68
2022-10-19T04:45:06.578Z,7.50
2022-10-19T04:50:02.326Z,7.57
2022-10-19T04:52:36.090Z,8.55
2022-10-19T04:55:08.694Z,6.32
2022-10-19T04:57:36.545Z,9.02
2022-10-19T05:00:17.550Z,8.13
2022-10-19T05:02:48.188Z,9.05
2022-10-19T05:05:28.542Z,9.02
2022-10-19T05:10:33.992Z,11.25
2022-10-19T05:13:04.858Z,8.93
2022-10-19T05:15:35.047Z,10.40
2022-10-19T05:18:22.465Z,11.68
2022-10-19T05:22:11.149Z,13.32
2022-10-19T05:24:44.939Z,12.68
2022-10-19T05:27:55.390Z,12.02
2022-10-19T05:30:26.119Z,11.63
2022-10-19T05:32:59.539Z,9.65
2022-10-19T05:35:30.138Z,12.68
2022-10-19T05:38:20.057Z,11.80
2022-10-19T05:40:54.406Z,9.85
2022-10-19T05:43:27.229Z,10.82
2022-10-19T05:45:57.281Z,11.10
2022-10-19T05:48:33.988Z,9.80
2022-10-19T05:51:55.775Z,13.80
2022-10-19T05:54:23.801Z,9.57
2022-10-19T05:57:06.682Z,12.25
2022-10-19T06:00:08.261Z,11.55
2022-10-19T06:03:15.796Z,15.23
2022-10-19T06:05:49.717Z,14.05
2022-10-19T06:08:30.849Z,19.60
2022-10-19T06:11:23.378Z,14.20
2022-10-19T06:14:06.697Z,14.98
2022-10-19T06:17:12.828Z,15.05
2022-10-19T06:20:14.827Z,18.35
2022-10-19T06:22:58.277Z,24.63
2022-10-19T06:25:53.555Z,19.55
2022-10-19T06:28:51.208Z,23.85
2022-10-19T06:31:42.912Z,25.35
2022-10-19T06:34:21.950Z,24.35
2022-10-19T06:36:58.427Z,25.27
2022-10-19T06:40:10.202Z,28.80
2022-10-19T06:43:02.828Z,18.05
2022-10-19T06:46:45.337Z,18.02
2022-10-19T06:49:05.243Z,23.45
2022-10-19T06:51:52.497Z,23.08
2022-10-19T06:54:45.620Z,20.05
2022-10-19T06:57:30.828Z,17.85
2022-10-19T07:00:05.330Z,14.25
2022-10-19T07:02:36.169Z,17.45
2022-10-19T07:05:11.226Z,14.05
2022-10-19T07:07:41.973Z,14.02
2022-10-19T07:10:25.084Z,16.17
2022-10-19T07:14:01.447Z,13.18
2022-10-19T07:18:58.236Z,22.42
2022-10-19T07:21:50.127Z,18.75
2022-10-19T07:24:21.497Z,19.08
2022-10-19T07:26:55.558Z,17.85
2022-10-19T07:30:23.727Z,23.92
2022-10-19T07:33:12.694Z,27.05
2022-10-19T07:35:41.589Z,27.45
2022-10-19T07:38:23.447Z,26.95
2022-10-19T07:41:01.130Z,27.35
2022-10-19T07:43:41.614Z,28.15
2022-10-19T07:46:13.525Z,26.98
2022-10-19T07:48:51.819Z,29.00
2022-10-19T07:54:00.273Z,30.95
2022-10-19T07:56:40.223Z,23.20
2022-10-19T07:59:55.394Z,21.45
2022-10-19T08:02:30.822Z,23.80
2022-10-19T08:07:15.854Z,22.85
2022-10-19T08:09:47.164Z,24.77
2022-10-19T08:12:43.493Z,18.95
2022-10-19T08:19:26.162Z,22.85
2022-10-19T08:29:40.651Z,17.58
2022-10-19T08:33:01.277Z,19.25
2022-10-19T08:43:33.377Z,16.00
2022-10-19T08:46:40.067Z,26.45
2022-10-19T08:49:38.414Z,12.55
2022-10-19T08:55:55.285Z,14.65
2022-10-19T08:59:15.994Z,24.77
2022-10-19T09:02:07.969Z,21.35
2022-10-19T09:05:09.645Z,20.02
2022-10-19T09:08:06.774Z,20.77
2022-10-19T09:16:49.149Z,16.30
2022-10-19T09:20:15.416Z,16.67
2022-10-19T09:51:13.700Z,19.38
2022-10-19T09:58:41.365Z,16.08
2022-10-19T10:05:10.121Z,15.45
2022-10-19T10:17:19.523Z,12.95
2022-10-19T10:21:50.601Z,13.85
2022-10-19T10:28:28.217Z,13.85
2022-10-19T10:36:25.542Z,7.22
2022-10-19T10:53:08.582Z,7.95
2022-10-19T10:55:42.704Z,8.55
2022-10-19T11:12:03.533Z,11.45
2022-10-19T11:27:09.364Z,8.38
2022-10-19T11:59:49.568Z,8.57
2022-10-19T12:03:01.440Z,10.00
2022-10-19T12:11:07.380Z,7.00
2022-10-19T12:14:33.388Z,7.03
2022-10-19T12:18:12.213Z,9.88
2022-10-19T12:42:33.622Z,15.15
2022-10-19T12:52:09.897Z,6.28
2022-10-19T12:57:37.353Z,6.35
2022-10-19T13:04:59.932Z,10.73
2022-10-19T13:13:25.412Z,8.18
2022-10-19T13:19:57.739Z,8.88
2022-10-19T13:46:16.948Z,10.00
2022-10-19T13:49:59.745Z,8.43
2022-10-19T13:53:23.910Z,10.10
2022-10-19T13:57:29.618Z,14.70
2022-10-19T14:02:22.548Z,10.18
2022-10-19T14:04:25.814Z,9.70
2022-10-19T14:13:02.044Z,7.20
2022-10-19T14:20:15.887Z,8.52
2022-10-19T14:27:20.568Z,7.95
2022-10-19T14:30:46.208Z,12.65
2022-10-19T14:33:26.858Z,7.50
2022-10-19T14:36:53.522Z,9.00
2022-10-19T14:39:40.032Z,8.27
2022-10-19T14:43:22.189Z,10.18
2022-10-19T14:53:20.860Z,8.27
2022-10-19T14:56:06.210Z,8.95
2022-10-19T14:58:57.060Z,8.10
2022-10-19T15:02:03.643Z,9.20
2022-10-19T15:04:47.873Z,11.18
2022-10-19T15:08:05.439Z,6.95
2022-10-19T15:10:47.106Z,7.95
2022-10-19T15:14:02.680Z,7.57
2022-10-19T15:17:10.263Z,6.20
2022-10-19T15:19:42.031Z,6.90
2022-10-19T15:25:53.278Z,9.82
2022-10-19T15:29:32.473Z,6.70
2022-10-19T15:36:46.553Z,6.70
2022-10-19T15:39:42.122Z,7.35
2022-10-19T15:42:49.937Z,7.20
2022-10-19T15:46:26.540Z,7.10
2022-10-19T15:49:15.478Z,6.95
2022-10-19T15:51:49.351Z,7.90
2022-10-19T15:54:19.446Z,3.40
2022-10-19T15:57:06.405Z,6.55
2022-10-19T15:59:48.858Z,4.25
2022-10-19T16:02:33.243Z,5.05
2022-10-19T16:05:42.269Z,3.58
2022-10-19T16:08:30.273Z,6.47
2022-10-19T16:11:41.739Z,5.55
2022-10-19T16:18:40.746Z,7.45
2022-10-19T16:20:58.659Z,4.40
2022-10-19T16:23:48.130Z,5.97
2022-10-19T16:26:39.849Z,9.93
2022-10-19T16:29:45.966Z,4.65
2022-10-19T16:32:24.878Z,4.68
2022-10-19T16:34:56.408Z,6.13
2022-10-19T16:37:29.690Z,6.78
2022-10-19T16:40:21.444Z,8.30
2022-10-19T16:43:02.158Z,10.25
2022-10-19T16:45:53.090Z,6.32
2022-10-19T16:48:26.128Z,4.55
2022-10-19T16:51:08.134Z,4.40
2022-10-19T16:53:47.935Z,3.60
2022-10-19T16:56:15.400Z,4.60
2022-10-19T16:58:42.822Z,8.88
2022-10-19T17:01:16.435Z,5.22
2022-10-19T17:03:51.058Z,6.65
2022-10-19T17:06:31.961Z,6.72
2022-10-19T17:12:00.657Z,5.07
2022-10-19T17:14:28.096Z,5.50
2022-10-19T17:16:55.546Z,6.30
2022-10-19T17:19:23.636Z,10.25
2022-10-19T17:21:57.783Z,6.00
2022-10-19T17:24:26.112Z,4.78
2022-10-19T17:26:54.044Z,5.20
2022-10-19T17:29:22.807Z,5.18
2022-10-19T17:31:51.872Z,5.05
2022-10-19T17:34:22.284Z,7.53
2022-10-19T17:36:49.534Z,4.97
2022-10-19T17:39:20.885Z,5.38
2022-10-19T17:41:52.024Z,4.97
2022-10-19T17:44:23.593Z,6.65
2022-10-19T17:46:54.639Z,5.85
2022-10-19T17:49:23.336Z,5.40
2022-10-19T17:51:53.548Z,7.22
2022-10-19T17:54:24.027Z,7.63
2022-10-19T17:56:51.519Z,4.18
2022-10-19T17:59:30.106Z,6.22
2022-10-19T18:02:10.747Z,6.15
2022-10-19T18:04:40.821Z,8.98
2022-10-19T18:07:08.400Z,6.60
2022-10-19T18:09:35.981Z,4.60
2022-10-19T18:12:04.852Z,4.95
2022-10-19T18:14:45.528Z,4.53
2022-10-19T18:17:14.891Z,6.13
2022-10-19T18:19:45.901Z,4.25
2022-10-19T18:22:23.900Z,4.88
2022-10-19T18:24:51.502Z,5.38
2022-10-19T18:27:20.757Z,8.77
2022-10-19T18:29:48.561Z,4.93
2022-10-19T18:32:18.966Z,4.68
2022-10-19T18:34:46.231Z,5.80
2022-10-19T18:37:14.498Z,6.13
2022-10-19T18:40:10.684Z,8.73
2022-10-19T18:42:42.228Z,4.75
2022-10-19T18:45:19.612Z,4.45
2022-10-19T18:47:46.882Z,5.60
2022-10-19T18:50:17.976Z,5.00
2022-10-19T18:52:48.064Z,5.53
2022-10-19T18:55:17.113Z,5.85
2022-10-19T18:57:44.710Z,3.75
2022-10-19T19:00:18.588Z,4.93
2022-10-19T19:02:53.650Z,8.45
2022-10-19T19:05:22.238Z,4.18
2022-10-19T19:07:50.175Z,5.25
2022-10-19T19:10:19.742Z,5.63
2022-10-19T19:12:50.276Z,9.85
2022-10-19T19:15:18.814Z,5.60
2022-10-19T19:17:45.960Z,5.07
2022-10-19T19:20:13.281Z,7.38
2022-10-19T19:22:41.185Z,4.68
2022-10-19T19:25:09.455Z,4.10
2022-10-19T19:30:06.770Z,7.15
2022-10-19T19:32:35.195Z,5.35
2022-10-19T19:35:02.711Z,7.40
2022-10-19T19:37:31.114Z,5.28
2022-10-19T19:39:59.803Z,8.55
2022-10-19T19:42:28.009Z,3.15
2022-10-19T19:44:57.454Z,6.50
2022-10-19T19:47:24.817Z,5.20
2022-10-19T19:49:52.391Z,5.00
2022-10-19T19:52:19.656Z,4.30
2022-10-19T19:54:46.808Z,4.13
2022-10-19T19:57:14.274Z,4.43
2022-10-19T20:00:10.658Z,3.33
2022-10-19T20:02:44.148Z,4.40
2022-10-19T20:05:11.717Z,4.90
2022-10-19T20:07:38.918Z,4.72
2022-10-19T20:10:09.725Z,4.05
2022-10-19T20:12:36.918Z,4.20
2022-10-19T20:15:05.012Z,3.65
2022-10-19T20:17:32.577Z,5.80
2022-10-19T20:20:01.109Z,4.63
2022-10-19T20:22:28.488Z,2.67
2022-10-19T20:24:55.707Z,3.13
2022-10-19T20:27:22.944Z,3.90
2022-10-19T20:29:58.785Z,4.28
2022-10-19T20:32:27.324Z,3.72
2022-10-19T20:34:55.104Z,3.50
2022-10-19T20:37:22.678Z,3.13
2022-10-19T20:39:55.887Z,4.82
2022-10-19T20:42:23.237Z,2.65
2022-10-19T20:44:50.833Z,5.18
2022-10-19T20:47:17.947Z,2.30
2022-10-19T20:49:50.889Z,2.67
2022-10-19T20:52:18.168Z,2.90
2022-10-19T20:54:45.436Z,2.42
2022-10-19T20:57:12.820Z,2.55
2022-10-19T20:59:40.382Z,2.58
2022-10-19T21:02:07.640Z,2.30
2022-10-19T21:04:38.121Z,3.33
2022-10-19T21:07:05.570Z,2.08
2022-10-19T21:09:33.058Z,3.85
2022-10-19T21:12:01.701Z,2.65
2022-10-19T21:14:30.281Z,3.35
2022-10-19T21:16:58.901Z,2.35
2022-10-19T21:19:30.725Z,3.05
2022-10-19T21:22:06.204Z,2.58
2022-10-19T21:24:36.177Z,3.30
2022-10-19T21:27:06.830Z,3.03
2022-10-19T21:29:36.140Z,3.17
2022-10-19T21:32:03.796Z,2.70
2022-10-19T21:34:31.779Z,1.90
2022-10-19T21:36:59.814Z,3.00
2022-10-19T21:39:28.103Z,2.40
2022-10-19T21:41:56.470Z,2.78
2022-10-19T21:44:26.140Z,3.22
2022-10-19T21:46:53.480Z,2.97
2022-10-19T21:49:21.031Z,3.13
2022-10-19T21:51:56.647Z,4.15
2022-10-19T21:54:25.470Z,3.33
2022-10-19T21:56:53.569Z,4.25
2022-10-19T21:59:20.821Z,4.90
2022-10-19T22:01:48.506Z,2.85
2022-10-19T22:04:17.681Z,3.25
2022-10-19T22:06:45.277Z,3.65
2022-10-19T22:09:17.230Z,3.17
2022-10-19T22:11:49.197Z,3.80
2022-10-19T22:14:17.467Z,3.17
2022-10-19T22:16:45.157Z,2.42
2022-10-19T22:19:13.836Z,4.55
2022-10-19T22:21:41.704Z,3.03
2022-10-19T22:24:13.130Z,3.05
2022-10-19T22:26:46.492Z,3.05
2022-10-19T22:29:14.439Z,3.22
2022-10-19T22:31:43.430Z,4.32
2022-10-19T22:34:14.790Z,4.45
2022-10-19T22:36:43.018Z,4.13
2022-10-19T22:39:10.591Z,3.10
2022-10-19T22:41:37.956Z,6.80
2022-10-19T22:44:06.596Z,2.90
2022-10-19T22:46:36.417Z,3.67
2022-10-19T22:49:05.012Z,3.55
2022-10-19T22:51:32.979Z,3.67
2022-10-19T22:54:00.704Z,3.60
2022-10-19T22:56:31.109Z,2.40
2022-10-19T22:59:03.447Z,3.17
2022-10-19T23:01:31.061Z,3.72
2022-10-19T23:03:58.960Z,5.13
2022-10-19T23:06:26.744Z,2.92
2022-10-19T23:08:54.828Z,4.30
2022-10-19T23:11:23.567Z,2.28
2022-10-19T23:13:50.927Z,1.85
2022-10-19T23:16:19.489Z,5.03
2022-10-19T23:18:48.126Z,4.32
2022-10-19T23:21:18.048Z,2.92
2022-10-19T23:23:46.117Z,4.47
2022-10-19T23:26:16.132Z,3.38
2022-10-19T23:28:46.051Z,5.57
2022-10-19T23:31:18.005Z,4.10
2022-10-19T23:36:17.815Z,2.72
2022-10-19T23:38:46.170Z,3.20
2022-10-19T23:41:14.057Z,3.75
2022-10-19T23:43:41.613Z,3.47
2022-10-19T23:46:09.490Z,2.20
2022-10-19T23:48:37.362Z,3.25
2022-10-19T23:51:54.421Z,3.08
2022-10-19T23:54:22.025Z,2.05
2022-10-19T23:56:49.211Z,2.42
2022-10-19T23:59:16.462Z,2.75
